Time;durP1;ratioP1;P1;durP2;ratioP2;P2;SDS_P1;SDS_P2;PMS_P1;PMS_P2;Temp;Humidity;BMP_temperature;BMP_pressure;BME280_temperature;BME280_humidity;BME280_pressure;Samples;Min_cycle;Max_cycle;Signal;HPM_P1;HPM_P2
2023/08/28 00:01:38;;;;;;;6.78;1.77;;;16.60;99.80;;;;;;4265022;27;20047;-55
2023/08/28 00:03:42;;;;;;;4.30;1.30;;;16.60;99.70;;;;;;4264672;27;20049;-57
2023/08/28 00:05:45;;;;;;;3.97;1.70;;;16.60;99.90;;;;;;4264676;27;20066;-58
2023/08/28 00:07:49;;;;;;;4.70;1.58;;;16.60;99.90;;;;;;4263130;27;20046;-58
2023/08/28 00:09:51;;;;;;;3.67;1.17;;;16.60;99.90;;;;;;4264697;27;20115;-58
2023/08/28 00:11:54;;;;;;;5.47;1.50;;;16.60;99.90;;;;;;4264902;27;20073;-58
2023/08/28 00:13:56;;;;;;;9.90;1.73;;;16.60;99.90;;;;;;4264322;27;20050;-58
2023/08/28 00:15:58;;;;;;;5.68;1.55;;;16.60;99.90;;;;;;4263336;27;20063;-55
2023/08/28 00:18:00;;;;;;;9.88;1.83;;;16.60;99.90;;;;;;4263902;27;20035;-60
2023/08/28 00:20:03;;;;;;;5.07;1.80;;;16.70;99.90;;;;;;4264494;27;20066;-60
2023/08/28 00:22:06;;;;;;;7.68;2.03;;;16.70;99.90;;;;;;4264457;27;20069;-60
2023/08/28 00:24:10;;;;;;;6.53;2.15;;;16.60;99.90;;;;;;4264464;27;20046;-60
2023/08/28 00:26:12;;;;;;;4.50;1.30;;;16.60;99.70;;;;;;4264566;27;20407;-59
2023/08/28 00:28:14;;;;;;;6.97;1.83;;;16.60;99.90;;;;;;4263290;27;20043;-61
2023/08/28 00:30:16;;;;;;;5.43;1.83;;;16.70;99.90;;;;;;4264362;27;20043;-59
2023/08/28 00:32:19;;;;;;;3.03;1.35;;;16.70;99.90;;;;;;4264368;27;20049;-60
2023/08/28 00:34:21;;;;;;;5.28;1.63;;;16.70;99.90;;;;;;4264490;27;20055;-57
2023/08/28 00:36:23;;;;;;;7.00;1.75;;;16.70;99.90;;;;;;4265009;27;20047;-61
2023/08/28 00:38:25;;;;;;;6.22;1.60;;;16.60;99.90;;;;;;4263869;27;20051;-61
2023/08/28 00:40:29;;;;;;;4.75;1.42;;;16.60;99.90;;;;;;4265408;27;20042;-59
2023/08/28 00:42:32;;;;;;;4.82;1.52;;;16.60;99.90;;;;;;4265384;27;20047;-60
2023/08/28 00:44:34;;;;;;;6.30;1.60;;;16.60;99.90;;;;;;4268625;27;20098;-60
2023/08/28 00:46:36;;;;;;;8.70;1.83;;;16.60;99.90;;;;;;4268339;27;20074;-61
2023/08/28 00:48:39;;;;;;;9.27;2.10;;;16.60;99.90;;;;;;4268205;27;20067;-64
2023/08/28 00:50:41;;;;;;;7.30;1.50;;;16.60;99.90;;;;;;4267749;27;20050;-60
2023/08/28 00:52:44;;;;;;;7.18;1.95;;;16.60;99.90;;;;;;4267599;27;20089;-67
2023/08/28 00:54:47;;;;;;;5.32;1.42;;;16.60;99.90;;;;;;4248879;28;20039;-60
2023/08/28 00:56:53;;;;;;;8.40;1.83;;;16.60;99.90;;;;;;4266578;27;20054;-63
2023/08/28 00:58:55;;;;;;;6.18;1.45;;;16.60;99.90;;;;;;4268513;27;20051;-60
2023/08/28 01:00:57;;;;;;;7.45;1.60;;;16.70;99.90;;;;;;4249240;27;20102;-57
2023/08/28 01:02:59;;;;;;;5.93;1.60;;;16.70;99.90;;;;;;4250066;27;20047;-57
2023/08/28 01:05:04;;;;;;;6.93;2.17;;;16.70;99.90;;;;;;4268857;27;20043;-57
2023/08/28 01:07:19;;;;;;;10.03;1.63;;;16.70;99.90;;;;;;4266427;27;20089;-56
2023/08/28 01:09:31;;;;;;;7.72;2.22;;;16.70;99.90;;;;;;4267379;27;20049;-56
2023/08/28 01:11:36;;;;;;;4.15;1.65;;;16.60;99.90;;;;;;4267147;27;20429;-57
2023/08/28 01:13:45;;;;;;;3.90;1.50;;;16.60;99.90;;;;;;4266742;27;20131;-59
2023/08/28 01:15:48;;;;;;;5.03;1.67;;;16.70;99.90;;;;;;4270296;27;20081;-60
2023/08/28 01:17:54;;;;;;;5.20;1.27;;;16.60;99.90;;;;;;4268811;27;20046;-57
2023/08/28 01:19:58;;;;;;;7.40;1.60;;;16.60;99.90;;;;;;4270365;27;20042;-57
2023/08/28 01:22:10;;;;;;;6.03;1.70;;;16.60;99.90;;;;;;4269895;27;20073;-56
2023/08/28 01:24:14;;;;;;;3.75;1.35;;;16.60;99.90;;;;;;4267663;27;20069;-54
2023/08/28 01:26:18;;;;;;;6.40;1.77;;;16.60;99.90;;;;;;4267777;27;20102;-55
2023/08/28 01:28:21;;;;;;;8.55;2.03;;;16.60;99.90;;;;;;4266423;27;20047;-57
2023/08/28 01:30:23;;;;;;;7.68;2.00;;;16.60;99.90;;;;;;4267690;27;20042;-56
2023/08/28 01:32:25;;;;;;;5.75;2.00;;;16.60;99.90;;;;;;4267542;27;20570;-54
2023/08/28 01:34:27;;;;;;;9.38;1.50;;;16.60;99.90;;;;;;4266979;27;20050;-55
2023/08/28 01:36:37;;;;;;;5.60;2.10;;;16.50;99.90;;;;;;4267569;27;20122;-55
2023/08/28 01:38:45;;;;;;;6.63;1.50;;;16.50;99.90;;;;;;4266424;27;20050;-54
2023/08/28 01:40:55;;;;;;;7.80;1.65;;;16.50;99.90;;;;;;4266995;27;20426;-60
2023/08/28 01:43:01;;;;;;;6.18;1.50;;;16.50;99.90;;;;;;4266393;27;20051;-54
2023/08/28 01:45:06;;;;;;;5.53;1.33;;;16.40;99.90;;;;;;4267023;27;20077;-58
2023/08/28 01:47:08;;;;;;;6.63;1.60;;;16.40;99.90;;;;;;4247191;27;20058;-56
2023/08/28 01:49:10;;;;;;;5.32;1.38;;;16.40;99.90;;;;;;4266425;27;20435;-56
2023/08/28 01:51:14;;;;;;;6.35;1.60;;;16.40;99.90;;;;;;4266611;27;20079;-56
2023/08/28 01:53:16;;;;;;;4.57;1.45;;;16.50;99.90;;;;;;4266326;27;20051;-57
2023/08/28 01:55:41;;;;;;;6.13;1.63;;;16.40;99.90;;;;;;4266610;27;20065;-56
2023/08/28 01:57:43;;;;;;;5.22;1.42;;;16.40;99.90;;;;;;4265185;27;20167;-54
2023/08/28 01:59:46;;;;;;;5.90;1.55;;;16.40;99.90;;;;;;4266372;27;20583;-57
2023/08/28 02:01:48;;;;;;;4.35;1.30;;;16.40;99.90;;;;;;4266505;27;20088;-55
2023/08/28 02:03:51;;;;;;;9.90;1.65;;;16.40;99.90;;;;;;4266432;27;20077;-54
2023/08/28 02:05:53;;;;;;;5.63;1.45;;;16.40;99.90;;;;;;4266347;27;20046;-55
2023/08/28 02:07:55;;;;;;;8.80;1.77;;;16.40;99.90;;;;;;4265155;27;20043;-55
2023/08/28 02:09:57;;;;;;;5.57;2.03;;;16.40;99.90;;;;;;4247643;27;20051;-55
2023/08/28 02:12:00;;;;;;;4.97;1.60;;;16.50;99.90;;;;;;4266001;27;20050;-57
2023/08/28 02:14:02;;;;;;;7.60;1.60;;;16.50;99.90;;;;;;4265914;27;20125;-54
2023/08/28 02:16:05;;;;;;;10.88;1.90;;;16.50;99.90;;;;;;4266111;27;20121;-55
2023/08/28 02:18:07;;;;;;;5.53;1.40;;;16.50;99.90;;;;;;4265182;27;20499;-55
2023/08/28 02:20:10;;;;;;;5.00;1.40;;;16.50;99.90;;;;;;4266290;27;20468;-55
2023/08/28 02:22:12;;;;;;;6.45;1.55;;;16.50;99.90;;;;;;4266079;27;20073;-55
2023/08/28 02:24:14;;;;;;;7.40;2.25;;;16.50;99.90;;;;;;4247453;27;20063;-55
2023/08/28 02:26:16;;;;;;;8.05;1.65;;;16.50;99.90;;;;;;4265624;27;20427;-55
2023/08/28 02:28:18;;;;;;;4.60;1.25;;;16.50;99.90;;;;;;4265005;27;20480;-55
2023/08/28 02:30:20;;;;;;;8.15;1.38;;;16.50;99.90;;;;;;4266185;27;20042;-58
2023/08/28 02:32:24;;;;;;;5.13;1.38;;;16.50;99.90;;;;;;4247862;27;20043;-59
2023/08/28 02:34:26;;;;;;;7.43;2.20;;;16.50;99.90;;;;;;4265869;27;20046;-59
2023/08/28 02:36:29;;;;;;;6.95;1.73;;;16.60;99.90;;;;;;4265813;27;20450;-59
2023/08/28 02:38:31;;;;;;;7.47;1.83;;;16.50;99.90;;;;;;4264846;27;20049;-60
2023/08/28 02:40:33;;;;;;;5.00;1.20;;;16.60;99.90;;;;;;4265516;27;20080;-59
2023/08/28 02:42:35;;;;;;;4.68;1.50;;;16.50;99.90;;;;;;4265498;27;20047;-58
2023/08/28 02:44:37;;;;;;;5.68;1.63;;;16.60;99.90;;;;;;4265745;27;20043;-57
2023/08/28 02:46:39;;;;;;;6.50;1.60;;;16.60;99.90;;;;;;4247710;27;20069;-61
2023/08/28 02:48:43;;;;;;;5.60;1.60;;;16.60;99.90;;;;;;4264571;27;20152;-60
2023/08/28 02:50:49;;;;;;;2.88;1.30;;;16.60;99.90;;;;;;4265657;27;20459;-59
2023/08/28 02:52:51;;;;;;;8.40;1.83;;;16.60;99.90;;;;;;4265745;27;20114;-59
2023/08/28 02:54:53;;;;;;;6.07;1.65;;;16.60;99.90;;;;;;4265343;27;20050;-60
2023/08/28 02:56:55;;;;;;;6.78;1.45;;;16.60;99.90;;;;;;4265418;27;20397;-60
2023/08/28 02:58:57;;;;;;;4.75;1.65;;;16.60;99.90;;;;;;4264943;27;20043;-63
2023/08/28 03:00:59;;;;;;;9.48;2.08;;;16.60;99.90;;;;;;4265454;27;20429;-59
2023/08/28 03:03:01;;;;;;;8.48;1.60;;;16.60;99.90;;;;;;4265643;27;20080;-60
2023/08/28 03:05:06;;;;;;;3.63;1.25;;;16.60;99.90;;;;;;4265485;27;20396;-59
2023/08/28 03:07:08;;;;;;;5.40;1.50;;;16.60;99.90;;;;;;4264547;27;20103;-58
2023/08/28 03:09:12;;;;;;;4.47;1.40;;;16.60;99.90;;;;;;4264917;27;20038;-57
2023/08/28 03:11:14;;;;;;;3.53;1.25;;;16.60;99.90;;;;;;4265212;27;20057;-56
2023/08/28 03:13:16;;;;;;;4.50;1.70;;;16.60;99.90;;;;;;4265303;27;20488;-57
2023/08/28 03:15:18;;;;;;;7.47;1.30;;;16.60;99.90;;;;;;4265071;27;20483;-57
2023/08/28 03:17:21;;;;;;;7.70;1.80;;;16.60;99.90;;;;;;4264302;27;20058;-57
2023/08/28 03:19:23;;;;;;;7.07;1.77;;;16.60;99.90;;;;;;4246113;27;20484;-57
2023/08/28 03:21:26;;;;;;;4.25;1.60;;;16.60;99.90;;;;;;4265102;27;20062;-57
2023/08/28 03:23:28;;;;;;;6.53;1.50;;;16.60;99.90;;;;;;4264669;27;20051;-57
2023/08/28 03:25:30;;;;;;;5.35;1.55;;;16.60;99.90;;;;;;4265115;27;20056;-57
2023/08/28 03:27:33;;;;;;;3.85;1.25;;;16.60;99.90;;;;;;4263811;27;20042;-56
2023/08/28 03:29:36;;;;;;;5.30;1.30;;;16.60;99.90;;;;;;4265005;27;20066;-56
2023/08/28 03:31:38;;;;;;;6.63;1.80;;;16.60;99.90;;;;;;4265025;27;20051;-56
2023/08/28 03:33:40;;;;;;;6.43;1.92;;;16.60;99.90;;;;;;4264548;27;20038;-57
2023/08/28 03:35:42;;;;;;;5.68;1.58;;;16.60;99.90;;;;;;4265029;27;20043;-57
2023/08/28 03:37:46;;;;;;;4.43;1.67;;;16.60;99.90;;;;;;4263392;27;20099;-57
2023/08/28 03:39:48;;;;;;;3.63;1.35;;;16.60;99.90;;;;;;4264908;27;20039;-57
2023/08/28 03:41:50;;;;;;;3.70;1.40;;;16.60;99.90;;;;;;4265060;27;20078;-57
2023/08/28 03:43:52;;;;;;;6.63;1.55;;;16.60;99.90;;;;;;4264563;27;20469;-57
2023/08/28 03:45:54;;;;;;;5.18;1.20;;;16.60;99.90;;;;;;4264779;27;20081;-57
2023/08/28 03:47:56;;;;;;;7.32;1.50;;;16.60;99.90;;;;;;4263443;27;20043;-59
2023/08/28 03:49:58;;;;;;;5.97;1.50;;;16.50;99.90;;;;;;4264827;27;20053;-60
2023/08/28 03:52:00;;;;;;;4.15;1.27;;;16.60;99.90;;;;;;4264566;27;20049;-60
2023/08/28 03:54:10;;;;;;;4.65;1.30;;;16.50;99.90;;;;;;4264290;27;20425;-58
2023/08/28 03:56:12;;;;;;;3.92;1.88;;;16.50;99.90;;;;;;4264686;27;20051;-59
2023/08/28 03:58:15;;;;;;;6.05;1.60;;;16.60;99.90;;;;;;4263684;27;20043;-59
2023/08/28 04:00:18;;;;;;;10.60;1.85;;;16.50;99.90;;;;;;4246326;28;20122;-59
2023/08/28 04:02:21;;;;;;;5.25;1.67;;;16.60;99.90;;;;;;4264735;27;20050;-59
2023/08/28 04:04:23;;;;;;;4.60;1.50;;;16.60;99.90;;;;;;4264818;27;20046;-58
2023/08/28 04:06:25;;;;;;;5.72;1.58;;;16.60;99.90;;;;;;4264535;27;20045;-59
2023/08/28 04:08:28;;;;;;;5.68;1.98;;;16.60;99.90;;;;;;4263474;27;20063;-59
2023/08/28 04:10:32;;;;;;;8.40;1.88;;;16.60;99.90;;;;;;4264703;27;20046;-58
2023/08/28 04:12:34;;;;;;;4.47;1.60;;;16.60;99.90;;;;;;4264455;27;20049;-60
2023/08/28 04:14:36;;;;;;;6.85;1.80;;;16.60;99.90;;;;;;4264332;27;20074;-59
2023/08/28 04:16:39;;;;;;;7.35;1.42;;;16.60;99.90;;;;;;4264389;27;20122;-58
2023/08/28 04:18:41;;;;;;;4.13;1.60;;;16.50;99.90;;;;;;4263706;27;20050;-58
2023/08/28 04:20:43;;;;;;;6.20;1.60;;;16.40;99.90;;;;;;4264556;27;20089;-58
2023/08/28 04:22:46;;;;;;;5.40;1.73;;;16.50;99.90;;;;;;4263656;27;20449;-59
2023/08/28 04:24:50;;;;;;;4.97;1.52;;;16.50;99.90;;;;;;4264331;27;20238;-57
2023/08/28 04:26:53;;;;;;;5.22;1.65;;;16.50;99.90;;;;;;4264372;27;20490;-57
2023/08/28 04:28:55;;;;;;;6.43;1.33;;;16.50;99.90;;;;;;4263283;27;20039;-56
2023/08/28 04:30:57;;;;;;;6.47;1.38;;;16.50;99.90;;;;;;4264362;27;20043;-57
2023/08/28 04:32:59;;;;;;;8.13;1.90;;;16.50;99.90;;;;;;4267848;27;20038;-57
2023/08/28 04:35:03;;;;;;;7.20;1.40;;;16.50;99.90;;;;;;4231948;28;20134;-57
2023/08/28 04:37:05;;;;;;;4.20;1.65;;;16.50;99.90;;;;;;4248746;27;20096;-57
2023/08/28 04:39:07;;;;;;;7.53;1.40;;;16.50;99.90;;;;;;4266740;27;20495;-56
2023/08/28 04:41:09;;;;;;;5.28;1.70;;;16.50;99.90;;;;;;4267741;27;20497;-56
2023/08/28 04:43:12;;;;;;;5.82;1.85;;;16.50;99.90;;;;;;4267713;27;20061;-55
2023/08/28 04:45:15;;;;;;;5.70;1.77;;;16.40;99.90;;;;;;4267634;27;20424;-56
2023/08/28 04:47:17;;;;;;;5.25;1.60;;;16.40;99.90;;;;;;4267148;27;20107;-56
2023/08/28 04:49:19;;;;;;;4.65;1.55;;;16.50;99.90;;;;;;4266726;27;20118;-58
2023/08/28 04:51:21;;;;;;;6.45;1.52;;;16.40;99.90;;;;;;4267226;27;20536;-58
2023/08/28 04:53:23;;;;;;;3.67;1.27;;;16.50;99.90;;;;;;4267575;27;20061;-58
2023/08/28 04:55:25;;;;;;;5.70;1.60;;;16.40;99.90;;;;;;4267346;27;20296;-59
2023/08/28 04:57:27;;;;;;;6.03;1.45;;;16.50;99.90;;;;;;4266753;27;20117;-59
2023/08/28 04:59:32;;;;;;;4.70;1.60;;;16.50;99.90;;;;;;4266999;27;20047;-58
2023/08/28 05:01:34;;;;;;;;;;;16.50;99.90;;;;;;4268064;27;20046;-59
2023/08/28 05:03:38;;;;;;;5.93;1.77;;;16.50;99.90;;;;;;4267181;27;19919;-59
2023/08/28 05:05:40;;;;;;;5.40;1.63;;;16.40;99.90;;;;;;4267209;27;20092;-59
2023/08/28 05:07:46;;;;;;;6.10;1.92;;;16.50;99.90;;;;;;4266385;27;20049;-59
2023/08/28 05:09:48;;;;;;;5.35;1.80;;;16.50;99.90;;;;;;4267304;27;20401;-59
2023/08/28 05:11:50;;;;;;;5.40;1.73;;;16.50;99.90;;;;;;4267031;27;20107;-59
2023/08/28 05:13:53;;;;;;;4.70;1.63;;;16.50;99.90;;;;;;4267302;27;20067;-59
2023/08/28 05:15:56;;;;;;;6.45;1.90;;;16.50;99.90;;;;;;4266774;27;20046;-59
2023/08/28 05:17:58;;;;;;;3.30;1.30;;;16.60;99.90;;;;;;4266299;27;20047;-60
2023/08/28 05:20:00;;;;;;;4.15;1.48;;;16.50;99.90;;;;;;4267275;27;20043;-59
2023/08/28 05:22:03;;;;;;;8.75;1.95;;;16.50;99.90;;;;;;4268274;27;20058;-59
2023/08/28 05:24:06;;;;;;;6.03;1.85;;;16.60;99.90;;;;;;4268549;27;20143;-59
2023/08/28 05:26:08;;;;;;;4.53;1.48;;;16.50;99.90;;;;;;4249804;27;20050;-59
2023/08/28 05:28:10;;;;;;;5.05;1.65;;;16.50;99.90;;;;;;4266022;27;20537;-59
2023/08/28 05:30:13;;;;;;;4.32;1.60;;;16.50;99.90;;;;;;4266857;27;20042;-58
2023/08/28 05:32:16;;;;;;;5.97;2.00;;;16.60;99.90;;;;;;4266888;27;20043;-58
2023/08/28 05:34:18;;;;;;;6.15;1.60;;;16.60;99.90;;;;;;4266486;27;20125;-59
2023/08/28 05:36:20;;;;;;;4.20;1.30;;;16.60;99.90;;;;;;4266581;27;20403;-59
2023/08/28 05:38:22;;;;;;;6.68;1.48;;;16.60;99.90;;;;;;4265730;27;20042;-59
2023/08/28 05:40:25;;;;;;;5.25;1.70;;;16.70;99.90;;;;;;4266505;27;20047;-59
2023/08/28 05:42:27;;;;;;;5.15;1.52;;;16.70;99.90;;;;;;4266165;27;20047;-59
2023/08/28 05:44:29;;;;;;;10.73;2.22;;;16.70;99.90;;;;;;4266478;27;20049;-59
2023/08/28 05:46:31;;;;;;;3.90;1.70;;;16.70;99.90;;;;;;4266534;27;20130;-61
2023/08/28 05:48:34;;;;;;;3.35;1.35;;;16.80;99.90;;;;;;4265118;27;20069;-59
2023/08/28 05:50:36;;;;;;;5.30;1.80;;;16.70;99.90;;;;;;4266495;27;20467;-59
2023/08/28 05:52:39;;;;;;;4.72;1.25;;;16.80;99.90;;;;;;4266783;27;20119;-59
2023/08/28 05:54:41;;;;;;;3.75;1.27;;;16.80;99.90;;;;;;4266288;27;20042;-59
2023/08/28 05:56:43;;;;;;;6.93;1.60;;;16.80;99.90;;;;;;4266304;27;20407;-59
2023/08/28 05:58:45;;;;;;;4.57;1.55;;;16.80;99.90;;;;;;4265338;27;20074;-59
2023/08/28 06:00:47;;;;;;;4.68;1.55;;;16.80;99.90;;;;;;4266674;27;20142;-59
2023/08/28 06:02:49;;;;;;;4.57;1.60;;;16.90;99.90;;;;;;4266058;27;20101;-59
2023/08/28 06:04:53;;;;;;;4.95;1.67;;;16.90;99.90;;;;;;4266469;27;20051;-59
2023/08/28 06:06:55;;;;;;;6.03;1.20;;;16.80;99.90;;;;;;4266468;27;20047;-59
2023/08/28 06:08:57;;;;;;;4.07;1.67;;;16.90;99.90;;;;;;4265421;27;20124;-58
2023/08/28 06:10:59;;;;;;;3.67;1.65;;;16.90;99.90;;;;;;4248004;27;20094;-58
2023/08/28 06:13:01;;;;;;;3.53;1.55;;;17.00;99.90;;;;;;4267522;27;20381;-72
2023/08/28 06:15:05;;;;;;;4.53;1.48;;;17.00;99.90;;;;;;4249040;27;20512;-58
2023/08/28 06:17:07;;;;;;;7.72;1.83;;;17.10;99.90;;;;;;4265518;27;20129;-59
2023/08/28 06:19:09;;;;;;;2.78;1.48;;;17.10;99.90;;;;;;4264880;27;20118;-59
2023/08/28 06:21:12;;;;;;;4.82;1.75;;;17.10;99.90;;;;;;4265964;27;20132;-59
2023/08/28 06:23:17;;;;;;;6.35;1.90;;;17.10;99.90;;;;;;4265733;27;20111;-59
2023/08/28 06:25:19;;;;;;;7.72;1.60;;;17.10;99.90;;;;;;4265815;27;20497;-59
2023/08/28 06:27:22;;;;;;;4.32;1.65;;;17.10;99.90;;;;;;4265892;27;20057;-59
2023/08/28 06:29:24;;;;;;;5.78;1.50;;;17.10;99.90;;;;;;4264870;27;20456;-59
2023/08/28 06:31:26;;;;;;;5.80;1.70;;;17.20;99.90;;;;;;4266032;27;20117;-59
2023/08/28 06:33:28;;;;;;;6.60;1.70;;;17.30;99.90;;;;;;4264398;27;20046;-59
2023/08/28 06:35:31;;;;;;;4.43;1.83;;;17.30;99.90;;;;;;4265515;27;20074;-59
2023/08/28 06:37:35;;;;;;;4.82;1.90;;;17.30;99.90;;;;;;4265865;27;20046;-59
2023/08/28 06:39:37;;;;;;;4.18;1.60;;;17.40;99.90;;;;;;4264985;27;20472;-59
2023/08/28 06:41:39;;;;;;;7.18;1.92;;;17.50;99.90;;;;;;4266063;27;20071;-58
2023/08/28 06:43:41;;;;;;;7.85;2.03;;;17.50;99.90;;;;;;4265484;27;20051;-58
2023/08/28 06:45:44;;;;;;;5.35;1.83;;;17.50;99.90;;;;;;4265790;27;20468;-57
2023/08/28 06:47:46;;;;;;;5.65;2.25;;;17.50;99.90;;;;;;4264436;27;20047;-57
2023/08/28 06:49:48;;;;;;;7.80;2.22;;;17.50;99.90;;;;;;4265009;27;20046;-57
2023/08/28 06:51:50;;;;;;;4.88;1.65;;;17.50;99.90;;;;;;4265842;27;20065;-57
2023/08/28 06:53:53;;;;;;;10.75;2.40;;;17.50;99.90;;;;;;4264932;27;20067;-57
2023/08/28 06:55:56;;;;;;;8.88;1.90;;;17.60;99.90;;;;;;4265614;27;20451;-56
2023/08/28 06:57:58;;;;;;;6.15;1.83;;;17.60;99.90;;;;;;4264433;27;20062;-56
2023/08/28 07:00:00;;;;;;;6.97;2.10;;;17.60;99.90;;;;;;4265242;27;20047;-56
2023/08/28 07:02:02;;;;;;;7.18;2.20;;;17.70;99.90;;;;;;4265084;27;20100;-57
2023/08/28 07:04:05;;;;;;;4.90;2.00;;;17.70;99.90;;;;;;4265143;27;20046;-57
2023/08/28 07:06:07;;;;;;;6.18;2.15;;;17.80;99.90;;;;;;4265353;27;20039;-57
2023/08/28 07:08:09;;;;;;;4.68;1.63;;;17.90;99.90;;;;;;4264026;27;20047;-57
2023/08/28 07:10:13;;;;;;;6.07;2.00;;;18.00;99.90;;;;;;4264822;27;20047;-56
2023/08/28 07:12:15;;;;;;;10.05;2.53;;;18.00;99.90;;;;;;4246863;27;20057;-57
2023/08/28 07:14:17;;;;;;;7.97;2.35;;;18.10;99.90;;;;;;4265221;27;20124;-57
2023/08/28 07:16:19;;;;;;;3.63;1.90;;;18.20;99.90;;;;;;4264795;27;20502;-56
2023/08/28 07:18:21;;;;;;;3.95;1.55;;;18.30;99.70;;;;;;4263989;27;20072;-56
2023/08/28 07:20:23;;;;;;;3.65;1.52;;;18.30;99.60;;;;;;4264728;27;20043;-57
2023/08/28 07:22:25;;;;;;;8.35;2.22;;;18.30;99.50;;;;;;4264848;27;20178;-57
2023/08/28 07:24:27;;;;;;;6.13;1.95;;;18.40;99.60;;;;;;4265098;27;20038;-58
2023/08/28 07:26:32;;;;;;;4.72;1.80;;;18.50;99.50;;;;;;4264964;27;20043;-57
2023/08/28 07:28:34;;;;;;;4.90;1.52;;;18.50;99.60;;;;;;4261754;27;20049;-57
2023/08/28 07:30:36;;;;;;;5.80;2.25;;;18.50;99.50;;;;;;4257061;27;20050;-57
2023/08/28 07:32:39;;;;;;;8.93;2.22;;;18.60;99.20;;;;;;4256125;27;20130;-57
2023/08/28 07:34:41;;;;;;;8.10;2.03;;;18.60;99.10;;;;;;4255558;27;20039;-57
2023/08/28 07:36:44;;;;;;;4.93;1.83;;;18.60;99.20;;;;;;4253756;27;20049;-57
2023/08/28 07:38:46;;;;;;;5.43;1.77;;;18.50;99.00;;;;;;4259593;27;20404;-57
2023/08/28 07:40:49;;;;;;;6.63;2.10;;;18.40;99.20;;;;;;4261561;27;20430;-56
2023/08/28 07:42:52;;;;;;;5.72;2.00;;;18.60;99.20;;;;;;4264449;27;20070;-62
2023/08/28 07:44:55;;;;;;;5.05;1.70;;;18.60;99.00;;;;;;4264059;27;20111;-57
2023/08/28 07:46:57;;;;;;;5.72;2.05;;;18.60;99.00;;;;;;4261744;27;20049;-56
2023/08/28 07:48:59;;;;;;;4.55;1.67;;;18.60;99.10;;;;;;4263814;27;20046;-56
2023/08/28 07:51:01;;;;;;;5.68;2.03;;;18.60;99.00;;;;;;4246149;27;20178;-56
2023/08/28 07:53:03;;;;;;;6.00;1.88;;;18.50;99.30;;;;;;4264533;27;20046;-56
2023/08/28 07:55:06;;;;;;;5.00;1.75;;;18.50;99.10;;;;;;4264602;27;20050;-56
2023/08/28 07:57:09;;;;;;;6.05;1.60;;;18.60;99.40;;;;;;4264679;27;20479;-57
2023/08/28 07:59:12;;;;;;;5.80;2.22;;;18.60;99.30;;;;;;4263151;27;20066;-56
2023/08/28 08:01:14;;;;;;;3.10;1.27;;;18.60;99.30;;;;;;4264561;27;20117;-61
2023/08/28 08:03:16;;;;;;;4.30;1.85;;;18.60;99.10;;;;;;4264753;27;20130;-57
2023/08/28 08:05:19;;;;;;;7.13;1.70;;;18.60;99.00;;;;;;4246953;27;20184;-56
2023/08/28 08:07:21;;;;;;;6.60;2.63;;;18.60;99.10;;;;;;4268237;27;20419;-56
2023/08/28 08:09:23;;;;;;;8.30;2.00;;;18.70;99.40;;;;;;4264003;27;20150;-57
2023/08/28 08:11:25;;;;;;;5.22;1.92;;;18.80;99.40;;;;;;4267874;27;20054;-57
2023/08/28 08:13:27;;;;;;;8.98;2.60;;;18.80;99.20;;;;;;4267587;27;20121;-56
2023/08/28 08:15:31;;;;;;;8.80;1.88;;;18.90;99.10;;;;;;4257585;27;20047;-57
2023/08/28 08:17:36;;;;;;;7.30;2.07;;;18.90;98.90;;;;;;4250905;27;20047;-57
2023/08/28 08:19:38;;;;;;;10.00;2.15;;;18.90;98.80;;;;;;4250099;27;20443;-58
2023/08/28 08:21:40;;;;;;;6.38;1.50;;;19.10;98.80;;;;;;4251131;27;20058;-55
2023/08/28 08:23:42;;;;;;;4.22;1.70;;;19.10;98.80;;;;;;4250806;27;20053;-54
2023/08/28 08:25:44;;;;;;;7.53;1.80;;;19.20;98.80;;;;;;4232248;28;20044;-54
2023/08/28 08:27:47;;;;;;;10.05;1.98;;;19.30;98.70;;;;;;4250982;27;20516;-54
2023/08/28 08:29:49;;;;;;;6.97;1.75;;;19.30;98.20;;;;;;4250458;27;20430;-60
2023/08/28 08:31:53;;;;;;;9.73;1.90;;;19.30;98.20;;;;;;4250787;27;20122;-54
2023/08/28 08:33:55;;;;;;;7.80;1.70;;;19.30;98.40;;;;;;4250686;27;20043;-54
2023/08/28 08:35:57;;;;;;;6.75;1.70;;;19.40;98.20;;;;;;4250442;27;20039;-54
2023/08/28 08:37:59;;;;;;;6.75;2.00;;;19.20;98.30;;;;;;4250633;27;20568;-54
2023/08/28 08:40:02;;;;;;;7.20;2.13;;;19.30;98.50;;;;;;4249719;27;20092;-54
2023/08/28 08:42:05;;;;;;;7.50;1.58;;;19.40;98.20;;;;;;4250300;27;20070;-55
2023/08/28 08:44:07;;;;;;;9.07;2.15;;;19.50;98.30;;;;;;4250531;27;20126;-56
2023/08/28 08:46:10;;;;;;;6.00;1.60;;;19.60;98.10;;;;;;4250437;27;20126;-55
2023/08/28 08:48:18;;;;;;;4.03;2.00;;;19.70;97.90;;;;;;4249567;27;20092;-56
2023/08/28 08:50:22;;;;;;;5.78;2.03;;;19.90;97.90;;;;;;4250162;27;20043;-55
2023/08/28 08:52:24;;;;;;;;;;;20.00;97.70;;;;;;4250709;27;20089;-55
2023/08/28 08:54:34;;;;;;;11.68;2.47;;;20.00;97.10;;;;;;4250493;27;19950;-59
2023/08/28 08:56:40;;;;;;;4.85;1.52;;;20.10;97.50;;;;;;4249778;27;20058;-55
2023/08/28 08:58:43;;;;;;;10.52;2.42;;;20.30;97.10;;;;;;4249065;27;20050;-57
2023/08/28 09:00:45;;;;;;;3.55;1.35;;;20.40;96.80;;;;;;4250183;27;20074;-56
2023/08/28 09:02:48;;;;;;;7.82;1.70;;;20.40;96.60;;;;;;4250098;27;20047;-55
2023/08/28 09:04:52;;;;;;;5.50;1.80;;;20.40;96.50;;;;;;4250202;27;20518;-56
2023/08/28 09:06:55;;;;;;;11.70;2.60;;;20.40;96.30;;;;;;4250087;27;20047;-55
2023/08/28 09:08:58;;;;;;;7.75;1.58;;;20.40;96.60;;;;;;4249001;27;20043;-55
2023/08/28 09:11:06;;;;;;;12.70;2.00;;;20.40;96.70;;;;;;4249679;27;20051;-55
2023/08/28 09:13:08;;;;;;;7.45;1.92;;;20.50;96.50;;;;;;4250121;27;20446;-55
2023/08/28 09:15:11;;;;;;;5.32;1.27;;;20.50;96.10;;;;;;4249754;27;20032;-56
2023/08/28 09:17:13;;;;;;;5.22;1.55;;;20.50;96.20;;;;;;4213785;28;20087;-54
2023/08/28 09:19:15;;;;;;;3.72;1.55;;;20.50;96.20;;;;;;4248961;27;20043;-55
2023/08/28 09:21:18;;;;;;;8.77;2.10;;;20.60;96.00;;;;;;4249657;27;20050;-54
2023/08/28 09:23:20;;;;;;;7.35;1.83;;;20.70;96.10;;;;;;4249865;27;20050;-55
2023/08/28 09:25:24;;;;;;;11.45;2.13;;;20.60;95.70;;;;;;4231448;28;20048;-56
2023/08/28 09:27:26;;;;;;;7.22;2.05;;;20.60;96.00;;;;;;4249441;27;20051;-56
2023/08/28 09:29:28;;;;;;;3.97;1.55;;;20.50;95.90;;;;;;4248780;27;20152;-56
2023/08/28 09:31:33;;;;;;;5.10;1.73;;;20.50;95.40;;;;;;4249685;27;20062;-56
2023/08/28 09:33:44;;;;;;;4.78;1.60;;;20.60;95.30;;;;;;4249777;27;20103;-56
2023/08/28 09:36:14;;;;;;;2.88;1.20;;;20.50;95.40;;;;;;4249519;27;20067;-54
2023/08/28 09:38:18;;;;;;;5.40;1.52;;;20.50;95.50;;;;;;4249078;27;20054;-55
2023/08/28 09:40:28;;;;;;;4.38;1.30;;;20.50;95.20;;;;;;4248802;27;20051;-56
2023/08/28 09:42:31;;;;;;;3.03;1.33;;;20.60;95.50;;;;;;4248756;27;20044;-59
2023/08/28 09:44:37;;;;;;;9.50;2.22;;;20.70;95.40;;;;;;4249430;27;20047;-55
2023/08/28 09:46:41;;;;;;;5.28;1.70;;;20.80;95.30;;;;;;4249626;27;20067;-55
2023/08/28 09:48:43;;;;;;;4.75;1.45;;;20.80;95.50;;;;;;4248600;27;20407;-56
2023/08/28 09:50:52;;;;;;;6.88;1.50;;;20.90;95.30;;;;;;4249378;27;20488;-55
2023/08/28 09:52:54;;;;;;;5.40;1.50;;;20.90;95.20;;;;;;4249462;27;20043;-56
2023/08/28 09:55:05;;;;;;;8.25;1.70;;;20.70;95.30;;;;;;4249149;27;20046;-56
2023/08/28 09:57:16;;;;;;;3.67;1.40;;;20.50;96.00;;;;;;4249264;27;20069;-56
2023/08/28 09:59:19;;;;;;;5.10;1.48;;;20.20;96.80;;;;;;4248804;27;20043;-59
2023/08/28 10:01:21;;;;;;;4.65;2.03;;;20.10;97.60;;;;;;4249350;27;20051;-56
2023/08/28 10:03:25;;;;;;;4.25;1.98;;;19.90;97.50;;;;;;4249310;27;20047;-56
2023/08/28 10:05:28;;;;;;;4.95;1.75;;;19.70;97.70;;;;;;4249101;27;20555;-56
2023/08/28 10:07:32;;;;;;;3.45;1.77;;;19.70;98.10;;;;;;4249199;27;20548;-55
2023/08/28 10:09:35;;;;;;;6.57;1.55;;;19.70;98.40;;;;;;4247566;27;20074;-55
2023/08/28 10:11:39;;;;;;;4.82;2.13;;;19.70;98.20;;;;;;4249314;27;20096;-56
2023/08/28 10:13:42;;;;;;;3.55;1.90;;;19.70;98.40;;;;;;4249727;27;20043;-56
2023/08/28 10:15:53;;;;;;;5.53;1.83;;;19.70;98.40;;;;;;4249540;27;20094;-55
2023/08/28 10:17:59;;;;;;;4.47;1.70;;;19.80;98.20;;;;;;4249250;27;20130;-57
2023/08/28 10:20:05;;;;;;;2.67;1.30;;;19.80;98.30;;;;;;4229554;28;20524;-56
2023/08/28 10:22:08;;;;;;;7.13;1.80;;;19.80;98.00;;;;;;4248866;27;20118;-55
2023/08/28 10:24:12;;;;;;;4.93;1.73;;;19.90;97.90;;;;;;4248251;27;20096;-55
2023/08/28 10:26:14;;;;;;;9.10;1.55;;;20.00;97.70;;;;;;4248869;27;20047;-58
2023/08/28 10:28:19;;;;;;;3.42;1.50;;;20.10;97.70;;;;;;4248452;27;20063;-58
2023/08/28 10:30:22;;;;;;;4.25;1.88;;;20.10;97.60;;;;;;4247245;27;20074;-58
2023/08/28 10:32:25;;;;;;;11.90;2.28;;;20.20;97.80;;;;;;4248612;27;20135;-58
2023/08/28 10:34:28;;;;;;;3.97;1.50;;;20.30;97.90;;;;;;4248689;27;20431;-58
2023/08/28 10:36:31;;;;;;;4.70;1.85;;;20.50;97.60;;;;;;4248643;27;20434;-58
2023/08/28 10:38:55;;;;;;;3.78;1.38;;;20.60;97.30;;;;;;4247497;27;20051;-56
2023/08/28 10:41:01;;;;;;;7.57;1.60;;;20.70;96.80;;;;;;4248405;27;20043;-57
2023/08/28 10:43:04;;;;;;;3.15;1.50;;;20.80;96.70;;;;;;4248789;27;20062;-56